Weather reports worldwide

Advertisment
Mt. St.Vincent, France (7382): temperature & dewpoint: 12.01.2020 12:00:00 - 18.01.2020 12:00:00 (CET)Mt. St.Vincent, France (7382): wind speed & gusts: 12.01.2020 12:00:00 - 18.01.2020 12:00:00 (CET)Mt. St.Vincent, France (7382): wind direction: 12.01.2020 12:00:00 - 18.01.2020 12:00:00 (CET)Mt. St.Vincent, France (7382): sunshine duration: 12.01.2020 12:00:00 - 18.01.2020 12:00:00 (CET)Mt. St.Vincent, France (7382): precipitation: 12.01.2020 12:00:00 - 18.01.2020 12:00:00 (CET)
Date & Time tt [°C] td [°C] ff [km/h] ff [kn] fx [km/h] fx [kn] dd sd [min] rr [mm]
18.01.2020 12:00:00 - - - - - - - - -
18.01.2020 11:00:00 1,8 1,5 18 10 26 14 W 36 0,0
18.01.2020 10:00:00 0,9 0,9 16 9 24 13 W 0 0,0
18.01.2020 09:00:00 0,6 0,6 18 10 24 13 W 0 0,0
18.01.2020 08:00:00 0,3 0,3 18 10 28 15 W 0 0,0
18.01.2020 07:00:00 0,4 0,4 22 12 31 17 W 0 -
18.01.2020 06:00:00 0,6 0,6 24 13 37 20 W 0 0,0
18.01.2020 05:00:00 0,4 0,4 26 14 39 21 W 0 0,0
18.01.2020 04:00:00 0,7 0,7 29 16 42 23 W 0 0,0
18.01.2020 03:00:00 0,9 0,9 28 15 41 22 W 0 0,0
18.01.2020 02:00:00 1,3 1,3 29 16 42 23 W 0 0,0
18.01.2020 01:00:00 2,0 2,0 28 15 44 24 W 0 -
18.01.2020 00:00:00 1,5 1,5 35 19 52 28 W 0 0,0
17.01.2020 23:00:00 2,1 2,0 29 16 42 23 W 0 0,0
17.01.2020 22:00:00 2,6 2,3 31 17 44 24 W 0 0,0
17.01.2020 21:00:00 4,1 4,1 29 16 42 23 W 0 0,0
17.01.2020 20:00:00 4,5 4,5 26 14 41 22 W 0 0,0
17.01.2020 19:00:00 4,5 4,5 26 14 44 24 W 0 -
17.01.2020 18:00:00 4,4 4,4 29 16 46 25 W 0 0,0
17.01.2020 17:00:00 4,7 4,7 35 19 48 26 W 0 0,0
17.01.2020 16:00:00 5,2 4,5 34 18 48 26 W 0 0,2
17.01.2020 15:00:00 5,7 5,1 29 16 46 25 W 0 0,6
17.01.2020 14:00:00 6,9 6,5 28 15 44 24 W 6 0,2
17.01.2020 13:00:00 6,4 6,0 26 14 39 21 W 12 -
17.01.2020 12:00:00 6,0 5,7 21 11 44 24 W 0 1,0
17.01.2020 11:00:00 6,8 6,5 29 16 52 28 SW 0 2,0
17.01.2020 10:00:00 6,9 5,8 26 14 44 24 SSW 0 2,0
17.01.2020 09:00:00 6,7 5,3 29 16 46 25 SW 0 0,6
17.01.2020 08:00:00 8,3 3,9 29 16 44 24 SW 0 0,0
17.01.2020 07:00:00 8,2 3,6 28 15 41 22 SSW 0 -
17.01.2020 06:00:00 6,9 3,5 21 11 34 18 S 0 0,0
17.01.2020 05:00:00 7,2 3,2 21 11 37 20 S 0 0,0
17.01.2020 04:00:00 7,0 3,1 21 11 34 18 S 0 0,0
17.01.2020 03:00:00 7,0 3,1 22 12 41 22 S 0 0,0
17.01.2020 02:00:00 7,2 3,2 29 16 39 21 SSE 0 0,0
17.01.2020 01:00:00 7,3 3,3 24 13 37 20 S 0 -
17.01.2020 00:00:00 7,5 3,7 24 13 41 22 S 0 0,0
16.01.2020 23:00:00 7,7 3,5 24 13 39 21 S 0 0,0
16.01.2020 22:00:00 7,2 3,4 26 14 37 20 S 0 0,0
16.01.2020 21:00:00 7,3 3,7 24 13 34 18 S 0 0,0
16.01.2020 20:00:00 7,4 3,8 24 13 37 20 SSE 0 0,0
16.01.2020 19:00:00 7,3 4,1 26 14 37 20 SE 0 -
16.01.2020 18:00:00 7,7 4,5 28 15 48 26 SE 0 0,0
16.01.2020 17:00:00 8,1 4,5 28 15 42 23 SE 54 0,0
16.01.2020 16:00:00 8,6 4,8 31 17 48 26 ESE 60 0,0
16.01.2020 15:00:00 8,6 4,8 31 17 44 24 ESE 60 0,0
16.01.2020 14:00:00 8,9 5,8 28 15 37 20 ESE 60 0,0
16.01.2020 13:00:00 9,0 5,9 22 12 29 16 ESE 60 -
16.01.2020 12:00:00 8,6 6,0 21 11 28 15 ESE 60 0,0
16.01.2020 11:00:00 8,1 5,9 18 10 29 16 ESE 60 0,0
16.01.2020 10:00:00 7,5 5,0 18 10 24 13 ESE 54 0,0
16.01.2020 09:00:00 6,7 4,4 11 6 16 9 E 12 0,0
16.01.2020 08:00:00 7,2 3,8 9 5 22 12 ESE 0 0,0
16.01.2020 07:00:00 8,0 3,5 15 8 21 11 SE 0 -
16.01.2020 06:00:00 8,4 3,4 11 6 16 9 SSE 0 0,0
16.01.2020 05:00:00 7,4 2,9 8 4 15 8 ESE 0 0,0
16.01.2020 04:00:00 9,0 2,8 9 5 15 8 S 0 0,0
16.01.2020 03:00:00 8,3 2,7 11 6 18 10 S 0 0,0
16.01.2020 02:00:00 8,0 2,7 9 5 22 12 S 0 0,0
16.01.2020 01:00:00 8,4 2,6 15 8 24 13 WSW 0 -
16.01.2020 00:00:00 8,2 2,6 13 7 24 13 SW 0 0,0
15.01.2020 23:00:00 8,4 3,0 18 10 31 17 SW 0 0,0
15.01.2020 22:00:00 8,0 3,3 16 9 26 14 S 0 0,0
15.01.2020 21:00:00 7,7 3,4 18 10 28 15 SSE 0 0,0
15.01.2020 20:00:00 9,2 2,5 22 12 34 18 S 0 0,0
15.01.2020 19:00:00 9,1 2,6 21 11 34 18 S 0 -
15.01.2020 18:00:00 9,5 2,8 22 12 35 19 S 0 0,0
15.01.2020 17:00:00 9,9 2,7 26 14 46 25 S 24 0,0
15.01.2020 16:00:00 11,1 3,1 31 17 65 35 S 54 0,0
15.01.2020 15:00:00 11,6 3,1 31 17 63 34 SSW 60 0,0
15.01.2020 14:00:00 11,2 2,7 34 18 63 34 S 54 0,0
15.01.2020 13:00:00 10,8 2,9 41 22 68 37 S 42 -
15.01.2020 12:00:00 10,1 3,4 31 17 55 30 S 18 0,0
15.01.2020 11:00:00 9,5 2,8 34 18 54 29 SSW 48 0,0
15.01.2020 10:00:00 8,2 2,6 26 14 42 23 S 48 0,0
15.01.2020 09:00:00 7,6 2,7 29 16 42 23 SSW 12 0,0
15.01.2020 08:00:00 6,8 2,5 26 14 37 20 S 0 0,0
15.01.2020 07:00:00 6,6 2,5 24 13 37 20 S 0 -
15.01.2020 06:00:00 6,2 2,5 21 11 35 19 SSE 0 0,0
15.01.2020 05:00:00 6,5 2,6 26 14 39 21 S 0 0,0
15.01.2020 04:00:00 6,6 2,9 28 15 39 21 SSE 0 0,0
15.01.2020 03:00:00 6,7 2,8 24 13 39 21 S 0 0,0
15.01.2020 02:00:00 6,5 2,6 26 14 37 20 SSE 0 0,0
15.01.2020 01:00:00 6,7 2,8 24 13 37 20 SSE 0 -
15.01.2020 00:00:00 6,9 2,8 21 11 34 18 S 0 0,0
14.01.2020 23:00:00 7,2 2,5 24 13 39 21 SSE 0 0,0
14.01.2020 22:00:00 7,3 2,4 29 16 41 22 SSE 0 0,0
14.01.2020 21:00:00 7,1 2,4 28 15 42 23 SSE 0 0,0
14.01.2020 20:00:00 7,5 3,0 28 15 41 22 SSE 0 0,0
14.01.2020 19:00:00 7,8 3,6 26 14 41 22 SSE 0 -
14.01.2020 18:00:00 7,9 4,1 26 14 34 18 SE 0 0,0
14.01.2020 17:00:00 8,7 4,7 22 12 29 16 SE 48 0,0
14.01.2020 16:00:00 9,8 4,6 21 11 29 16 SSE 36 0,0
14.01.2020 15:00:00 10,2 4,1 18 10 28 15 SE 6 0,0
14.01.2020 14:00:00 9,8 3,5 18 10 28 15 SSE 0 0,0
14.01.2020 13:00:00 9,8 3,1 13 7 28 15 SSE 36 -
14.01.2020 12:00:00 8,3 1,0 16 9 41 22 SSE 24 0,0
14.01.2020 11:00:00 8,5 0,5 22 12 39 21 S 60 0,0
14.01.2020 10:00:00 7,1 -1,1 24 13 35 19 S 60 0,0
14.01.2020 09:00:00 6,2 -1,7 22 12 34 18 S 12 0,0
14.01.2020 08:00:00 5,5 -2,1 22 12 31 17 S 0 0,0
14.01.2020 07:00:00 5,2 -1,7 18 10 29 16 SSE 0 -
14.01.2020 06:00:00 5,1 -2,0 18 10 29 16 S 0 0,0
14.01.2020 05:00:00 4,8 -2,3 18 10 31 17 SSW 0 0,0
14.01.2020 04:00:00 6,1 -3,0 22 12 34 18 SSW 0 0,0
14.01.2020 03:00:00 4,9 -2,2 21 11 31 17 S 0 0,0
14.01.2020 02:00:00 5,1 -2,0 21 11 29 16 S 0 0,0
14.01.2020 01:00:00 5,5 -0,4 18 10 28 15 SSW 0 -
14.01.2020 00:00:00 5,0 0,9 16 9 22 12 SSW 0 0,0
13.01.2020 23:00:00 5,6 1,9 15 8 29 16 SSW 0 0,0
13.01.2020 22:00:00 5,8 2,4 21 11 28 15 S 0 0,0
13.01.2020 21:00:00 4,8 3,6 16 9 24 13 S 0 0,0
13.01.2020 20:00:00 4,6 4,2 16 9 24 13 S 0 0,0
13.01.2020 19:00:00 3,8 3,8 15 8 22 12 SSE 0 -
13.01.2020 18:00:00 3,6 3,6 11 6 24 13 E 0 0,0
13.01.2020 17:00:00 4,7 4,7 18 10 26 14 ESE 42 0,0
13.01.2020 16:00:00 6,2 6,1 16 9 24 13 ESE 60 0,0
13.01.2020 15:00:00 6,3 6,3 18 10 26 14 ESE 36 0,0
13.01.2020 14:00:00 7,9 7,5 8 4 18 10 SSE 48 0,0
13.01.2020 13:00:00 5,8 5,8 9 5 26 14 WSW 6 -
13.01.2020 12:00:00 5,5 5,5 16 9 26 14 S 0 0,0
13.01.2020 11:00:00 5,4 5,4 9 5 21 11 S 0 0,0
13.01.2020 10:00:00 5,1 5,1 13 7 18 10 WSW 0 0,0
13.01.2020 09:00:00 4,7 4,7 15 8 24 13 WSW 0 0,0
13.01.2020 08:00:00 4,4 4,4 16 9 22 12 WSW 0 0,0
13.01.2020 07:00:00 3,9 3,9 15 8 26 14 WSW 0 -
13.01.2020 06:00:00 3,5 3,5 21 11 31 17 WSW 0 0,0
13.01.2020 05:00:00 3,5 3,5 26 14 34 18 W 0 0,0
13.01.2020 04:00:00 3,4 3,4 21 11 29 16 WSW 0 0,0
13.01.2020 03:00:00 3,3 3,3 22 12 29 16 W 0 0,0
13.01.2020 02:00:00 2,8 2,7 21 11 26 14 W 0 0,0
13.01.2020 01:00:00 3,1 2,1 16 9 22 12 W 0 -
13.01.2020 00:00:00 3,8 1,5 16 9 24 13 W 0 0,0
12.01.2020 23:00:00 3,9 1,8 21 11 28 15 W 0 0,0
12.01.2020 22:00:00 3,5 1,0 22 12 28 15 W 0 0,0
12.01.2020 21:00:00 3,2 1,1 18 10 28 15 WSW 0 0,0
12.01.2020 20:00:00 2,8 1,0 22 12 28 15 W 0 0,0
12.01.2020 19:00:00 2,8 1,2 21 11 24 13 WSW 0 -
12.01.2020 18:00:00 2,3 0,8 16 9 21 11 WSW 0 0,0
12.01.2020 17:00:00 2,7 0,9 11 6 18 10 WSW 24 0,0
12.01.2020 16:00:00 4,1 1,8 15 8 22 12 W 42 0,0
12.01.2020 15:00:00 3,5 1,4 15 8 24 13 W 42 0,0
12.01.2020 14:00:00 4,1 1,6 16 9 24 13 W 48 0,0
12.01.2020 13:00:00 3,9 1,4 16 9 26 14 WSW 60 -
12.01.2020 12:00:00 2,3 0,7 18 10 28 15 WSW 60 0,0

tt = temperature
td = dewpoint
ff = wind speed
fx = gusts
dd = wind direction
sd = sunshine duration
rr = precipitation

Next stations